CES126 ZSSS-ZGGG
Flight info
| Callsign | CES126 |
|---|---|
| Flight time | 1h 53m |
| Altitude | 38100 |
| Route | NXD71D NXD W131 AKDIM A470 DUBGO W134 ELNEX A599 PLT W19 OLPAB OLPAB8 |
| Aircraft | A346/H-SDE2E3FGHIJ3J4J5M1RWXY/LB1D1 |
Departure
| Time | 2026-04-29 05:34 |
|---|---|
| Airport | Shanghai Hongqiao International Airport (ZSSS) |
Arrival
| Time | 2026-04-29 07:27 |
|---|---|
| Airport | Guangzhou Baiyun International Airport (ZGGG) |
| Time | Latitude | Longitude | Altitude | Speed | Heading |
|---|---|---|---|---|---|
| 2026-04-29 05:09 | 31.19799 | 121.32758 | 27 ft | 0 kts | 357° |
| 2026-04-29 05:23 | 31.19784 | 121.32758 | 26 ft | 4 kts | 357° |
| 2026-04-29 05:23 | 31.19763 | 121.32760 | 26 ft | 4 kts | 359° |
| 2026-04-29 05:24 | 31.19740 | 121.32756 | 27 ft | 4 kts | 26° |
| 2026-04-29 05:24 | 31.19726 | 121.32741 | 25 ft | 4 kts | 62° |
| 2026-04-29 05:24 | 31.19719 | 121.32714 | 26 ft | 4 kts | 83° |
| 2026-04-29 05:24 | 31.19717 | 121.32697 | 26 ft | 0 kts | 87° |
| 2026-04-29 05:27 | 31.19718 | 121.32718 | 27 ft | 5 kts | 87° |
| 2026-04-29 05:27 | 31.19721 | 121.32776 | 27 ft | 9 kts | 87° |
| 2026-04-29 05:28 | 31.19724 | 121.32869 | 27 ft | 13 kts | 87° |
| 2026-04-29 05:28 | 31.19728 | 121.32971 | 27 ft | 11 kts | 87° |
| 2026-04-29 05:28 | 31.19713 | 121.33048 | 27 ft | 9 kts | 146° |
| 2026-04-29 05:28 | 31.19637 | 121.33064 | 27 ft | 13 kts | 177° |
| 2026-04-29 05:29 | 31.19540 | 121.33070 | 27 ft | 15 kts | 177° |
| 2026-04-29 05:29 | 31.19421 | 121.33076 | 27 ft | 18 kts | 177° |
| 2026-04-29 05:29 | 31.19282 | 121.33084 | 27 ft | 21 kts | 177° |
| 2026-04-29 05:29 | 31.19126 | 121.33093 | 27 ft | 23 kts | 177° |
| 2026-04-29 05:30 | 31.18955 | 121.33102 | 27 ft | 26 kts | 178° |
| 2026-04-29 05:30 | 31.18795 | 121.33110 | 28 ft | 23 kts | 177° |
| 2026-04-29 05:30 | 31.18656 | 121.33118 | 28 ft | 19 kts | 177° |
| 2026-04-29 05:30 | 31.18512 | 121.33126 | 28 ft | 22 kts | 177° |
| 2026-04-29 05:31 | 31.18396 | 121.33132 | 28 ft | 11 kts | 177° |
| 2026-04-29 05:31 | 31.18341 | 121.33156 | 27 ft | 3 kts | 114° |
| 2026-04-29 05:31 | 31.18340 | 121.33179 | 27 ft | 7 kts | 84° |
| 2026-04-29 05:31 | 31.18344 | 121.33255 | 27 ft | 8 kts | 88° |
| 2026-04-29 05:32 | 31.18363 | 121.33317 | 27 ft | 9 kts | 34° |
| 2026-04-29 05:32 | 31.18415 | 121.33321 | 28 ft | 4 kts | 358° |
| 2026-04-29 05:32 | 31.18444 | 121.33320 | 29 ft | 3 kts | 358° |
| 2026-04-29 05:32 | 31.18462 | 121.33319 | 29 ft | 8 kts | 358° |
| 2026-04-29 05:33 | 31.18692 | 121.33307 | 28 ft | 65 kts | 357° |
| 2026-04-29 05:33 | 31.19362 | 121.33272 | 27 ft | 125 kts | 357° |
| 2026-04-29 05:33 | 31.20408 | 121.33215 | 32 ft | 174 kts | 359° |
| 2026-04-29 05:33 | 31.21696 | 121.33156 | 400 ft | 189 kts | 359° |
| 2026-04-29 05:34 | 31.22989 | 121.32928 | 1226 ft | 188 kts | 342° |
| 2026-04-29 05:34 | 31.24063 | 121.32080 | 2086 ft | 188 kts | 318° |
| 2026-04-29 05:34 | 31.24775 | 121.30768 | 2770 ft | 194 kts | 304° |
| 2026-04-29 05:34 | 31.25372 | 121.29338 | 3382 ft | 198 kts | 303° |
| 2026-04-29 05:35 | 31.25979 | 121.27845 | 3886 ft | 209 kts | 302° |
| 2026-04-29 05:35 | 31.26635 | 121.26268 | 4324 ft | 223 kts | 302° |
| 2026-04-29 05:35 | 31.27343 | 121.24583 | 4737 ft | 238 kts | 301° |
| 2026-04-29 05:35 | 31.27790 | 121.22687 | 4899 ft | 249 kts | 270° |
| 2026-04-29 05:36 | 31.27275 | 121.20728 | 5075 ft | 266 kts | 237° |
| 2026-04-29 05:36 | 31.26133 | 121.18925 | 5551 ft | 284 kts | 232° |
| 2026-04-29 05:36 | 31.24905 | 121.17078 | 6380 ft | 288 kts | 232° |
| 2026-04-29 05:36 | 31.23693 | 121.15214 | 7350 ft | 287 kts | 233° |
| 2026-04-29 05:37 | 31.22480 | 121.13375 | 8404 ft | 283 kts | 227° |
| 2026-04-29 05:37 | 31.20894 | 121.12138 | 9557 ft | 278 kts | 200° |
| 2026-04-29 05:37 | 31.18951 | 121.11859 | 10591 ft | 282 kts | 181° |
| 2026-04-29 05:37 | 31.16980 | 121.11985 | 11194 ft | 295 kts | 181° |
| 2026-04-29 05:38 | 31.14863 | 121.12124 | 11644 ft | 313 kts | 181° |
| 2026-04-29 05:38 | 31.12575 | 121.12253 | 12058 ft | 331 kts | 183° |
| 2026-04-29 05:38 | 31.10259 | 121.11882 | 12384 ft | 343 kts | 201° |
| 2026-04-29 05:38 | 31.08073 | 121.10544 | 12759 ft | 357 kts | 219° |
| 2026-04-29 05:39 | 31.06371 | 121.08383 | 13414 ft | 363 kts | 237° |
| 2026-04-29 05:39 | 31.05363 | 121.05689 | 14264 ft | 365 kts | 252° |
| 2026-04-29 05:39 | 31.04655 | 121.02820 | 15045 ft | 367 kts | 253° |
| 2026-04-29 05:39 | 31.03950 | 120.99947 | 15719 ft | 371 kts | 253° |
| 2026-04-29 05:40 | 31.03236 | 120.97034 | 16379 ft | 374 kts | 253° |
| 2026-04-29 05:40 | 31.02516 | 120.94101 | 17042 ft | 377 kts | 253° |
| 2026-04-29 05:40 | 31.01790 | 120.91147 | 17676 ft | 380 kts | 253° |
| 2026-04-29 05:40 | 31.01058 | 120.88171 | 18304 ft | 382 kts | 253° |
| 2026-04-29 05:41 | 31.00322 | 120.85182 | 18809 ft | 384 kts | 253° |
| 2026-04-29 05:41 | 30.99579 | 120.82171 | 19254 ft | 388 kts | 253° |
| 2026-04-29 05:41 | 30.98825 | 120.79119 | 19701 ft | 393 kts | 253° |
| 2026-04-29 05:41 | 30.98074 | 120.76083 | 20229 ft | 396 kts | 253° |
| 2026-04-29 05:42 | 30.97308 | 120.72987 | 20820 ft | 398 kts | 252° |
| 2026-04-29 05:42 | 30.96536 | 120.69869 | 21359 ft | 401 kts | 252° |
| 2026-04-29 05:42 | 30.95757 | 120.66734 | 21854 ft | 404 kts | 252° |
| 2026-04-29 05:42 | 30.94972 | 120.63578 | 22358 ft | 407 kts | 252° |
| 2026-04-29 05:43 | 30.94179 | 120.60392 | 22887 ft | 409 kts | 252° |
| 2026-04-29 05:43 | 30.93380 | 120.57189 | 23384 ft | 412 kts | 252° |
| 2026-04-29 05:43 | 30.92576 | 120.53967 | 23873 ft | 415 kts | 252° |
| 2026-04-29 05:43 | 30.91766 | 120.50722 | 24282 ft | 418 kts | 252° |
| 2026-04-29 05:44 | 30.90916 | 120.47474 | 24685 ft | 419 kts | 248° |
| 2026-04-29 05:44 | 30.89622 | 120.44430 | 25092 ft | 419 kts | 237° |
| 2026-04-29 05:44 | 30.87834 | 120.41738 | 25533 ft | 420 kts | 227° |
| 2026-04-29 05:44 | 30.85658 | 120.39510 | 25929 ft | 424 kts | 218° |
| 2026-04-29 05:45 | 30.83252 | 120.37506 | 26368 ft | 426 kts | 217° |
| 2026-04-29 05:45 | 30.80829 | 120.35513 | 26777 ft | 427 kts | 217° |
| 2026-04-29 05:45 | 30.78384 | 120.33511 | 27158 ft | 429 kts | 217° |
| 2026-04-29 05:45 | 30.75932 | 120.31507 | 27536 ft | 431 kts | 217° |
| 2026-04-29 05:46 | 30.73478 | 120.29503 | 27901 ft | 432 kts | 217° |
| 2026-04-29 05:46 | 30.71015 | 120.27494 | 28230 ft | 433 kts | 217° |
| 2026-04-29 05:46 | 30.68538 | 120.25473 | 28549 ft | 435 kts | 217° |
| 2026-04-29 05:46 | 30.66060 | 120.23453 | 28849 ft | 435 kts | 217° |
| 2026-04-29 05:47 | 30.63578 | 120.21431 | 29131 ft | 436 kts | 217° |
| 2026-04-29 05:47 | 30.61096 | 120.19411 | 29412 ft | 436 kts | 216° |
| 2026-04-29 05:47 | 30.58609 | 120.17389 | 29728 ft | 436 kts | 216° |
| 2026-04-29 05:47 | 30.56128 | 120.15373 | 30091 ft | 434 kts | 216° |
| 2026-04-29 05:48 | 30.53655 | 120.13363 | 30420 ft | 432 kts | 216° |
| 2026-04-29 05:48 | 30.51223 | 120.11390 | 30690 ft | 432 kts | 216° |
| 2026-04-29 05:48 | 30.48759 | 120.09396 | 31095 ft | 428 kts | 217° |
| 2026-04-29 05:48 | 30.46333 | 120.07429 | 31649 ft | 422 kts | 217° |
| 2026-04-29 05:49 | 30.43906 | 120.05527 | 32125 ft | 421 kts | 214° |
| 2026-04-29 05:49 | 30.41404 | 120.03762 | 32519 ft | 422 kts | 212° |
| 2026-04-29 05:49 | 30.38856 | 120.02066 | 32986 ft | 420 kts | 212° |
| 2026-04-29 05:49 | 30.36337 | 120.00381 | 33533 ft | 418 kts | 212° |
| 2026-04-29 05:50 | 30.33826 | 119.98703 | 34091 ft | 415 kts | 212° |
| 2026-04-29 05:50 | 30.31333 | 119.97040 | 34559 ft | 412 kts | 212° |
| 2026-04-29 05:50 | 30.28849 | 119.95387 | 34971 ft | 410 kts | 213° |
| 2026-04-29 05:50 | 30.26377 | 119.93744 | 35315 ft | 410 kts | 213° |
| 2026-04-29 05:51 | 30.23909 | 119.92102 | 35623 ft | 409 kts | 213° |
| 2026-04-29 05:51 | 30.21439 | 119.90460 | 35929 ft | 409 kts | 214° |
| 2026-04-29 05:51 | 30.18999 | 119.88839 | 36336 ft | 408 kts | 214° |
| 2026-04-29 05:51 | 30.16534 | 119.87203 | 36761 ft | 407 kts | 214° |
| 2026-04-29 05:52 | 30.14077 | 119.85572 | 37067 ft | 408 kts | 214° |
| 2026-04-29 05:52 | 30.11606 | 119.83932 | 37315 ft | 410 kts | 215° |
| 2026-04-29 05:52 | 30.09124 | 119.82286 | 37596 ft | 412 kts | 215° |
| 2026-04-29 05:52 | 30.06634 | 119.80637 | 37857 ft | 411 kts | 215° |
| 2026-04-29 05:53 | 30.04150 | 119.78989 | 38086 ft | 411 kts | 216° |
| 2026-04-29 05:53 | 30.01672 | 119.77327 | 38268 ft | 412 kts | 216° |
| 2026-04-29 05:53 | 29.96737 | 119.73996 | 38309 ft | 415 kts | 216° |
| 2026-04-29 05:54 | 29.91741 | 119.70636 | 38313 ft | 415 kts | 216° |
| 2026-04-29 05:54 | 29.86752 | 119.67278 | 38303 ft | 414 kts | 217° |
| 2026-04-29 05:55 | 29.81944 | 119.63640 | 38284 ft | 413 kts | 220° |
| 2026-04-29 05:55 | 29.77161 | 119.59909 | 38282 ft | 415 kts | 220° |
| 2026-04-29 05:56 | 29.72402 | 119.56196 | 38287 ft | 416 kts | 220° |
| 2026-04-29 05:56 | 29.67644 | 119.52416 | 38301 ft | 413 kts | 221° |
| 2026-04-29 05:57 | 29.63198 | 119.48286 | 38282 ft | 408 kts | 226° |
| 2026-04-29 05:57 | 29.59117 | 119.43754 | 38279 ft | 408 kts | 231° |
| 2026-04-29 05:58 | 29.55289 | 119.38925 | 38282 ft | 408 kts | 231° |
| 2026-04-29 05:58 | 29.51480 | 119.34093 | 38253 ft | 407 kts | 232° |
| 2026-04-29 05:59 | 29.47705 | 119.29293 | 38267 ft | 407 kts | 232° |
| 2026-04-29 05:59 | 29.43903 | 119.24461 | 38280 ft | 407 kts | 231° |
| 2026-04-29 06:00 | 29.40104 | 119.19639 | 38259 ft | 407 kts | 231° |
| 2026-04-29 06:00 | 29.36298 | 119.14816 | 38251 ft | 407 kts | 231° |
| 2026-04-29 06:01 | 29.32486 | 119.09992 | 38254 ft | 408 kts | 231° |
| 2026-04-29 06:01 | 29.28671 | 119.05179 | 38245 ft | 408 kts | 231° |
| 2026-04-29 06:02 | 29.24852 | 119.00365 | 38238 ft | 408 kts | 231° |
| 2026-04-29 06:02 | 29.21058 | 118.95577 | 38232 ft | 409 kts | 231° |
| 2026-04-29 06:03 | 29.17237 | 118.90756 | 38229 ft | 408 kts | 231° |
| 2026-04-29 06:03 | 29.13419 | 118.85948 | 38223 ft | 408 kts | 231° |
| 2026-04-29 06:04 | 29.09591 | 118.81136 | 38223 ft | 408 kts | 231° |
| 2026-04-29 06:04 | 29.05764 | 118.76332 | 38205 ft | 408 kts | 231° |
| 2026-04-29 06:05 | 29.01923 | 118.71520 | 38197 ft | 410 kts | 231° |
| 2026-04-29 06:05 | 28.98063 | 118.66688 | 38192 ft | 411 kts | 231° |
| 2026-04-29 06:06 | 28.94210 | 118.61869 | 38207 ft | 409 kts | 231° |
| 2026-04-29 06:06 | 28.90370 | 118.57073 | 38190 ft | 409 kts | 231° |
| 2026-04-29 06:07 | 28.86529 | 118.52282 | 38191 ft | 408 kts | 231° |
| 2026-04-29 06:07 | 28.82711 | 118.47527 | 38163 ft | 409 kts | 231° |
| 2026-04-29 06:08 | 28.78849 | 118.42720 | 38179 ft | 411 kts | 231° |
| 2026-04-29 06:08 | 28.74975 | 118.37905 | 38177 ft | 411 kts | 231° |
| 2026-04-29 06:09 | 28.71766 | 118.33918 | 38185 ft | 409 kts | 231° |
| 2026-04-29 06:09 | 28.67915 | 118.29143 | 38166 ft | 408 kts | 231° |
| 2026-04-29 06:10 | 28.63436 | 118.23597 | 38146 ft | 409 kts | 231° |
| 2026-04-29 06:10 | 28.60199 | 118.19593 | 38171 ft | 410 kts | 231° |
| 2026-04-29 06:11 | 28.56329 | 118.14810 | 38177 ft | 410 kts | 231° |
| 2026-04-29 06:11 | 28.52483 | 118.10062 | 38168 ft | 410 kts | 231° |
| 2026-04-29 06:12 | 28.48611 | 118.05288 | 38168 ft | 410 kts | 231° |
| 2026-04-29 06:12 | 28.44745 | 118.00527 | 38167 ft | 409 kts | 231° |
| 2026-04-29 06:13 | 28.40873 | 117.95786 | 38158 ft | 410 kts | 230° |
| 2026-04-29 06:13 | 28.36898 | 117.91110 | 38183 ft | 411 kts | 230° |
| 2026-04-29 06:14 | 28.32914 | 117.86447 | 38157 ft | 411 kts | 230° |
| 2026-04-29 06:14 | 28.28932 | 117.81783 | 38176 ft | 411 kts | 230° |
| 2026-04-29 06:15 | 28.24948 | 117.77117 | 38169 ft | 411 kts | 230° |
| 2026-04-29 06:15 | 28.20958 | 117.72450 | 38173 ft | 411 kts | 230° |
| 2026-04-29 06:16 | 28.16993 | 117.67816 | 38167 ft | 411 kts | 230° |
| 2026-04-29 06:16 | 28.12983 | 117.63134 | 38168 ft | 411 kts | 230° |
| 2026-04-29 06:17 | 28.09024 | 117.58519 | 38175 ft | 411 kts | 230° |
| 2026-04-29 06:17 | 28.05039 | 117.53875 | 38170 ft | 411 kts | 230° |
| 2026-04-29 06:18 | 28.01057 | 117.49211 | 38143 ft | 412 kts | 230° |
| 2026-04-29 06:18 | 27.97066 | 117.44540 | 38168 ft | 411 kts | 230° |
| 2026-04-29 06:19 | 27.93084 | 117.39889 | 38162 ft | 411 kts | 230° |
| 2026-04-29 06:19 | 27.89130 | 117.35273 | 38146 ft | 410 kts | 230° |
| 2026-04-29 06:20 | 27.85155 | 117.30638 | 38153 ft | 410 kts | 230° |
| 2026-04-29 06:20 | 27.81181 | 117.26010 | 38157 ft | 410 kts | 230° |
| 2026-04-29 06:21 | 27.77193 | 117.21376 | 38151 ft | 413 kts | 230° |
| 2026-04-29 06:21 | 27.73184 | 117.16716 | 38156 ft | 413 kts | 230° |
| 2026-04-29 06:22 | 27.69194 | 117.12083 | 38146 ft | 410 kts | 230° |
| 2026-04-29 06:22 | 27.65199 | 117.07455 | 38147 ft | 410 kts | 230° |
| 2026-04-29 06:23 | 27.61239 | 117.02869 | 38151 ft | 410 kts | 230° |
| 2026-04-29 06:23 | 27.57247 | 116.98254 | 38139 ft | 413 kts | 230° |
| 2026-04-29 06:24 | 27.53223 | 116.93606 | 38151 ft | 414 kts | 230° |
| 2026-04-29 06:24 | 27.49209 | 116.88938 | 38148 ft | 414 kts | 230° |
| 2026-04-29 06:25 | 27.45220 | 116.84261 | 38156 ft | 412 kts | 230° |
| 2026-04-29 06:25 | 27.41241 | 116.79610 | 38165 ft | 412 kts | 230° |
| 2026-04-29 06:26 | 27.37259 | 116.74964 | 38136 ft | 412 kts | 230° |
| 2026-04-29 06:26 | 27.33260 | 116.70304 | 38158 ft | 415 kts | 230° |
| 2026-04-29 06:27 | 27.29269 | 116.65658 | 38163 ft | 415 kts | 230° |
| 2026-04-29 06:27 | 27.25255 | 116.60992 | 38166 ft | 415 kts | 230° |
| 2026-04-29 06:28 | 27.21233 | 116.56320 | 38165 ft | 415 kts | 230° |
| 2026-04-29 06:28 | 27.17292 | 116.51578 | 38161 ft | 414 kts | 230° |
| 2026-04-29 06:29 | 27.13370 | 116.46804 | 38155 ft | 416 kts | 230° |
| 2026-04-29 06:29 | 27.09434 | 116.42029 | 38160 ft | 416 kts | 230° |
| 2026-04-29 06:30 | 27.03521 | 116.34874 | 38164 ft | 416 kts | 230° |
| 2026-04-29 06:31 | 26.99605 | 116.30146 | 38164 ft | 416 kts | 230° |
| 2026-04-29 06:31 | 26.95656 | 116.25383 | 38166 ft | 416 kts | 230° |
| 2026-04-29 06:32 | 26.91706 | 116.20621 | 38154 ft | 418 kts | 230° |
| 2026-04-29 06:32 | 26.87726 | 116.15829 | 38151 ft | 419 kts | 230° |
| 2026-04-29 06:33 | 26.83755 | 116.11052 | 38155 ft | 419 kts | 230° |
| 2026-04-29 06:33 | 26.79798 | 116.06300 | 38157 ft | 419 kts | 230° |
| 2026-04-29 06:34 | 26.75819 | 116.01527 | 38156 ft | 419 kts | 230° |
| 2026-04-29 06:34 | 26.71834 | 115.96750 | 38131 ft | 419 kts | 230° |
| 2026-04-29 06:35 | 26.67869 | 115.91941 | 38153 ft | 420 kts | 230° |
| 2026-04-29 06:35 | 26.63905 | 115.87138 | 38161 ft | 420 kts | 230° |
| 2026-04-29 06:36 | 26.59943 | 115.82344 | 38161 ft | 420 kts | 230° |
| 2026-04-29 06:36 | 26.55992 | 115.77573 | 38162 ft | 420 kts | 230° |
| 2026-04-29 06:37 | 26.52020 | 115.72780 | 38163 ft | 421 kts | 229° |
| 2026-04-29 06:37 | 26.48044 | 115.67986 | 38160 ft | 421 kts | 229° |
| 2026-04-29 06:38 | 26.44057 | 115.63188 | 38182 ft | 421 kts | 229° |
| 2026-04-29 06:38 | 26.40076 | 115.58399 | 38172 ft | 420 kts | 229° |
| 2026-04-29 06:39 | 26.36094 | 115.53618 | 38167 ft | 420 kts | 229° |
| 2026-04-29 06:39 | 26.32110 | 115.48840 | 38173 ft | 420 kts | 229° |
| 2026-04-29 06:40 | 26.28126 | 115.44067 | 38167 ft | 420 kts | 229° |
| 2026-04-29 06:40 | 26.24141 | 115.39293 | 38165 ft | 422 kts | 229° |
| 2026-04-29 06:41 | 26.20137 | 115.34502 | 38179 ft | 422 kts | 229° |
| 2026-04-29 06:41 | 26.16153 | 115.29742 | 38181 ft | 421 kts | 229° |
| 2026-04-29 06:42 | 26.12158 | 115.24977 | 38183 ft | 420 kts | 229° |
| 2026-04-29 06:42 | 26.08163 | 115.20216 | 38180 ft | 420 kts | 229° |
| 2026-04-29 06:43 | 26.04163 | 115.15455 | 38180 ft | 420 kts | 229° |
| 2026-04-29 06:43 | 26.00160 | 115.10696 | 38184 ft | 420 kts | 229° |
| 2026-04-29 06:44 | 25.96190 | 115.05980 | 38185 ft | 420 kts | 229° |
| 2026-04-29 06:44 | 25.92189 | 115.01234 | 38204 ft | 420 kts | 229° |
| 2026-04-29 06:45 | 25.88202 | 114.96508 | 38202 ft | 419 kts | 227° |
| 2026-04-29 06:45 | 25.83828 | 114.92196 | 38193 ft | 421 kts | 219° |
| 2026-04-29 06:46 | 25.78855 | 114.88687 | 38174 ft | 427 kts | 212° |
| 2026-04-29 06:46 | 25.73359 | 114.86065 | 38186 ft | 433 kts | 203° |
| 2026-04-29 06:47 | 25.67499 | 114.84357 | 38187 ft | 436 kts | 198° |
| 2026-04-29 06:47 | 25.61613 | 114.82868 | 38186 ft | 437 kts | 198° |
| 2026-04-29 06:48 | 25.55676 | 114.81379 | 38185 ft | 437 kts | 198° |
| 2026-04-29 06:48 | 25.49728 | 114.79892 | 38191 ft | 438 kts | 198° |
| 2026-04-29 06:49 | 25.43775 | 114.78407 | 38171 ft | 438 kts | 198° |
| 2026-04-29 06:49 | 25.37821 | 114.76922 | 38178 ft | 438 kts | 198° |
| 2026-04-29 06:50 | 25.31868 | 114.75440 | 38183 ft | 438 kts | 198° |
| 2026-04-29 06:50 | 25.25951 | 114.73966 | 38160 ft | 439 kts | 198° |
| 2026-04-29 06:51 | 25.19973 | 114.72478 | 38172 ft | 440 kts | 198° |
| 2026-04-29 06:51 | 25.13994 | 114.70996 | 38172 ft | 441 kts | 198° |
| 2026-04-29 06:52 | 25.08000 | 114.69512 | 38166 ft | 441 kts | 198° |
| 2026-04-29 06:52 | 25.02017 | 114.68030 | 38161 ft | 440 kts | 198° |
| 2026-04-29 06:53 | 24.96031 | 114.66546 | 38155 ft | 441 kts | 197° |
| 2026-04-29 06:53 | 24.90070 | 114.65075 | 38159 ft | 441 kts | 197° |
| 2026-04-29 06:54 | 24.84074 | 114.63597 | 38155 ft | 441 kts | 197° |
| 2026-04-29 06:54 | 24.78077 | 114.62105 | 38155 ft | 441 kts | 199° |
| 2026-04-29 06:55 | 24.72224 | 114.60173 | 38129 ft | 438 kts | 204° |
| 2026-04-29 06:55 | 24.66592 | 114.57639 | 38141 ft | 436 kts | 208° |
| 2026-04-29 06:56 | 24.61210 | 114.54536 | 38138 ft | 435 kts | 213° |
| 2026-04-29 06:56 | 24.56846 | 114.51792 | 38137 ft | 435 kts | 212° |
| 2026-04-29 06:57 | 24.52480 | 114.49047 | 38139 ft | 435 kts | 212° |
| 2026-04-29 06:57 | 24.47230 | 114.45743 | 38123 ft | 434 kts | 213° |
| 2026-04-29 06:58 | 24.41972 | 114.42426 | 38057 ft | 434 kts | 212° |
| 2026-04-29 06:58 | 24.39359 | 114.40788 | 37627 ft | 431 kts | 212° |
| 2026-04-29 06:58 | 24.36741 | 114.39152 | 36965 ft | 432 kts | 212° |
| 2026-04-29 06:58 | 24.34134 | 114.37525 | 36417 ft | 431 kts | 212° |
| 2026-04-29 06:59 | 24.31531 | 114.35900 | 35823 ft | 430 kts | 212° |
| 2026-04-29 06:59 | 24.29807 | 114.34818 | 35410 ft | 431 kts | 212° |
| 2026-04-29 06:59 | 24.27196 | 114.33178 | 34750 ft | 433 kts | 212° |
| 2026-04-29 06:59 | 24.24578 | 114.31537 | 34106 ft | 435 kts | 213° |
| 2026-04-29 07:00 | 24.21945 | 114.29887 | 33417 ft | 436 kts | 212° |
| 2026-04-29 07:00 | 24.19302 | 114.28230 | 32682 ft | 438 kts | 212° |
| 2026-04-29 07:00 | 24.16652 | 114.26548 | 31789 ft | 442 kts | 214° |
| 2026-04-29 07:00 | 24.14070 | 114.24643 | 30847 ft | 448 kts | 218° |
| 2026-04-29 07:01 | 24.11638 | 114.22492 | 29991 ft | 451 kts | 223° |
| 2026-04-29 07:01 | 24.09361 | 114.20108 | 29035 ft | 454 kts | 227° |
| 2026-04-29 07:01 | 24.07262 | 114.17499 | 28084 ft | 457 kts | 232° |
| 2026-04-29 07:01 | 24.05396 | 114.14726 | 27352 ft | 456 kts | 237° |
| 2026-04-29 07:02 | 24.03749 | 114.11785 | 26891 ft | 449 kts | 241° |
| 2026-04-29 07:02 | 24.02264 | 114.08790 | 26338 ft | 445 kts | 242° |
| 2026-04-29 07:02 | 24.00814 | 114.05807 | 25728 ft | 441 kts | 243° |
| 2026-04-29 07:02 | 23.99379 | 114.02843 | 25182 ft | 438 kts | 243° |
| 2026-04-29 07:03 | 23.97959 | 113.99903 | 24645 ft | 435 kts | 243° |
| 2026-04-29 07:03 | 23.96549 | 113.96986 | 24107 ft | 432 kts | 243° |
| 2026-04-29 07:03 | 23.95141 | 113.94077 | 23554 ft | 431 kts | 243° |
| 2026-04-29 07:03 | 23.93740 | 113.91190 | 22907 ft | 428 kts | 243° |
| 2026-04-29 07:04 | 23.92348 | 113.88321 | 22341 ft | 424 kts | 243° |
| 2026-04-29 07:04 | 23.90968 | 113.85483 | 21791 ft | 420 kts | 243° |
| 2026-04-29 07:04 | 23.89598 | 113.82667 | 21239 ft | 417 kts | 243° |
| 2026-04-29 07:04 | 23.88259 | 113.79917 | 20741 ft | 413 kts | 243° |
| 2026-04-29 07:05 | 23.86914 | 113.77154 | 20207 ft | 410 kts | 243° |
| 2026-04-29 07:05 | 23.85580 | 113.74415 | 19803 ft | 405 kts | 243° |
| 2026-04-29 07:05 | 23.84250 | 113.71689 | 19672 ft | 407 kts | 243° |
| 2026-04-29 07:05 | 23.82915 | 113.68949 | 19668 ft | 408 kts | 243° |
| 2026-04-29 07:06 | 23.81563 | 113.66213 | 19665 ft | 409 kts | 241° |
| 2026-04-29 07:06 | 23.79926 | 113.63664 | 19664 ft | 411 kts | 232° |
| 2026-04-29 07:06 | 23.77940 | 113.61403 | 19674 ft | 413 kts | 224° |
| 2026-04-29 07:06 | 23.75632 | 113.59474 | 19672 ft | 416 kts | 216° |
| 2026-04-29 07:07 | 23.73189 | 113.57778 | 19651 ft | 415 kts | 214° |
| 2026-04-29 07:07 | 23.70724 | 113.56119 | 19393 ft | 416 kts | 214° |
| 2026-04-29 07:07 | 23.68269 | 113.54471 | 18979 ft | 412 kts | 214° |
| 2026-04-29 07:07 | 23.65862 | 113.52848 | 18577 ft | 409 kts | 214° |
| 2026-04-29 07:08 | 23.63450 | 113.51214 | 18154 ft | 407 kts | 215° |
| 2026-04-29 07:08 | 23.61202 | 113.49382 | 17668 ft | 400 kts | 226° |
| 2026-04-29 07:08 | 23.59420 | 113.47092 | 17223 ft | 394 kts | 238° |
| 2026-04-29 07:08 | 23.58150 | 113.44472 | 16771 ft | 388 kts | 249° |
| 2026-04-29 07:09 | 23.57231 | 113.41708 | 16324 ft | 385 kts | 251° |
| 2026-04-29 07:09 | 23.56352 | 113.38952 | 15895 ft | 384 kts | 251° |
| 2026-04-29 07:09 | 23.55477 | 113.36204 | 15438 ft | 381 kts | 251° |
| 2026-04-29 07:09 | 23.54607 | 113.33478 | 14969 ft | 379 kts | 251° |
| 2026-04-29 07:10 | 23.53737 | 113.30771 | 14506 ft | 376 kts | 251° |
| 2026-04-29 07:10 | 23.52875 | 113.28091 | 14043 ft | 373 kts | 251° |
| 2026-04-29 07:10 | 23.52008 | 113.25430 | 13566 ft | 370 kts | 249° |
| 2026-04-29 07:10 | 23.50727 | 113.23011 | 13024 ft | 369 kts | 232° |
| 2026-04-29 07:11 | 23.48852 | 113.21164 | 12536 ft | 370 kts | 216° |
| 2026-04-29 07:11 | 23.46518 | 113.19979 | 12036 ft | 373 kts | 199° |
| 2026-04-29 07:11 | 23.43980 | 113.19388 | 11775 ft | 374 kts | 194° |
| 2026-04-29 07:11 | 23.41413 | 113.18861 | 11743 ft | 374 kts | 194° |
| 2026-04-29 07:12 | 23.38854 | 113.18333 | 11743 ft | 375 kts | 194° |
| 2026-04-29 07:12 | 23.36292 | 113.17799 | 11742 ft | 374 kts | 194° |
| 2026-04-29 07:12 | 23.33757 | 113.17269 | 11726 ft | 362 kts | 194° |
| 2026-04-29 07:12 | 23.31348 | 113.16767 | 11737 ft | 345 kts | 194° |
| 2026-04-29 07:13 | 23.29038 | 113.16284 | 11631 ft | 332 kts | 195° |
| 2026-04-29 07:13 | 23.26799 | 113.15812 | 11384 ft | 324 kts | 195° |
| 2026-04-29 07:13 | 23.24613 | 113.15351 | 11144 ft | 317 kts | 195° |
| 2026-04-29 07:13 | 23.22473 | 113.14901 | 10889 ft | 309 kts | 195° |
| 2026-04-29 07:14 | 23.20383 | 113.14461 | 10681 ft | 301 kts | 196° |
| 2026-04-29 07:14 | 23.18380 | 113.13956 | 10519 ft | 291 kts | 198° |
| 2026-04-29 07:14 | 23.16446 | 113.13437 | 10353 ft | 282 kts | 198° |
| 2026-04-29 07:14 | 23.14591 | 113.12938 | 10183 ft | 274 kts | 198° |
| 2026-04-29 07:15 | 23.12770 | 113.12448 | 10020 ft | 266 kts | 199° |
| 2026-04-29 07:15 | 23.10995 | 113.11970 | 9849 ft | 259 kts | 199° |
| 2026-04-29 07:15 | 23.09256 | 113.11502 | 9542 ft | 256 kts | 199° |
| 2026-04-29 07:15 | 23.07536 | 113.11040 | 9289 ft | 251 kts | 198° |
| 2026-04-29 07:16 | 23.05859 | 113.10590 | 9050 ft | 246 kts | 199° |
| 2026-04-29 07:16 | 23.04200 | 113.10144 | 8652 ft | 246 kts | 198° |
| 2026-04-29 07:16 | 23.02532 | 113.09695 | 8205 ft | 248 kts | 198° |
| 2026-04-29 07:16 | 23.00874 | 113.09249 | 7783 ft | 249 kts | 198° |
| 2026-04-29 07:17 | 22.99230 | 113.08812 | 7690 ft | 235 kts | 198° |
| 2026-04-29 07:17 | 22.97649 | 113.08518 | 7768 ft | 233 kts | 180° |
| 2026-04-29 07:17 | 22.96083 | 113.09039 | 7868 ft | 244 kts | 149° |
| 2026-04-29 07:17 | 22.94945 | 113.10421 | 7888 ft | 252 kts | 115° |
| 2026-04-29 07:18 | 22.94433 | 113.12270 | 7917 ft | 257 kts | 105° |
| 2026-04-29 07:18 | 22.94048 | 113.14167 | 7904 ft | 256 kts | 104° |
| 2026-04-29 07:18 | 22.93669 | 113.16054 | 7894 ft | 256 kts | 101° |
| 2026-04-29 07:18 | 22.93784 | 113.17969 | 7847 ft | 258 kts | 63° |
| 2026-04-29 07:19 | 22.94890 | 113.19431 | 7872 ft | 249 kts | 25° |
| 2026-04-29 07:19 | 22.96454 | 113.20090 | 7743 ft | 238 kts | 9° |
| 2026-04-29 07:19 | 22.98073 | 113.20479 | 7397 ft | 239 kts | 6° |
| 2026-04-29 07:19 | 22.99710 | 113.20829 | 7100 ft | 239 kts | 6° |
| 2026-04-29 07:20 | 23.01338 | 113.21194 | 6839 ft | 238 kts | 7° |
| 2026-04-29 07:20 | 23.02957 | 113.21581 | 6581 ft | 237 kts | 7° |
| 2026-04-29 07:20 | 23.04562 | 113.21985 | 6337 ft | 236 kts | 8° |
| 2026-04-29 07:20 | 23.06137 | 113.22397 | 6084 ft | 236 kts | 9° |
| 2026-04-29 07:21 | 23.07731 | 113.22825 | 5783 ft | 237 kts | 9° |
| 2026-04-29 07:21 | 23.09337 | 113.23264 | 5474 ft | 239 kts | 9° |
| 2026-04-29 07:21 | 23.10950 | 113.23707 | 5149 ft | 240 kts | 9° |
| 2026-04-29 07:21 | 23.12589 | 113.24158 | 4830 ft | 240 kts | 9° |
| 2026-04-29 07:22 | 23.14207 | 113.24602 | 4523 ft | 240 kts | 10° |
| 2026-04-29 07:22 | 23.15822 | 113.25047 | 4197 ft | 239 kts | 11° |
| 2026-04-29 07:22 | 23.17425 | 113.25485 | 3889 ft | 237 kts | 12° |
| 2026-04-29 07:22 | 23.19020 | 113.25920 | 3568 ft | 235 kts | 12° |
| 2026-04-29 07:23 | 23.20594 | 113.26347 | 3257 ft | 231 kts | 13° |
| 2026-04-29 07:23 | 23.22128 | 113.26763 | 2926 ft | 221 kts | 13° |
| 2026-04-29 07:23 | 23.23570 | 113.27154 | 2668 ft | 206 kts | 13° |
| 2026-04-29 07:23 | 23.24918 | 113.27519 | 2450 ft | 194 kts | 13° |
| 2026-04-29 07:24 | 23.26196 | 113.27865 | 2282 ft | 183 kts | 13° |
| 2026-04-29 07:24 | 23.27418 | 113.28194 | 1992 ft | 178 kts | 14° |
| 2026-04-29 07:24 | 23.28594 | 113.28511 | 1729 ft | 173 kts | 14° |
| 2026-04-29 07:24 | 23.29730 | 113.28819 | 1465 ft | 163 kts | 14° |
| 2026-04-29 07:25 | 23.30782 | 113.29104 | 1251 ft | 151 kts | 13° |
| 2026-04-29 07:25 | 23.31792 | 113.29377 | 1076 ft | 149 kts | 13° |
| 2026-04-29 07:25 | 23.32796 | 113.29647 | 899 ft | 148 kts | 13° |
| 2026-04-29 07:25 | 23.33794 | 113.29919 | 704 ft | 148 kts | 12° |
| 2026-04-29 07:26 | 23.34787 | 113.30189 | 511 ft | 147 kts | 11° |
| 2026-04-29 07:26 | 23.35783 | 113.30469 | 322 ft | 149 kts | 10° |
| 2026-04-29 07:26 | 23.36775 | 113.30733 | 145 ft | 148 kts | 11° |
| 2026-04-29 07:26 | 23.37748 | 113.30981 | 59 ft | 128 kts | 13° |
| 2026-04-29 07:27 | 23.38416 | 113.31163 | 62 ft | 71 kts | 14° |
| 2026-04-29 07:27 | 23.38765 | 113.31258 | 57 ft | 35 kts | 14° |
| 2026-04-29 07:27 | 23.38953 | 113.31303 | 56 ft | 20 kts | 4° |
| 2026-04-29 07:27 | 23.39091 | 113.31281 | 61 ft | 17 kts | 346° |
| 2026-04-29 07:28 | 23.39166 | 113.31260 | 59 ft | 6 kts | 346° |
| 2026-04-29 07:28 | 23.39221 | 113.31245 | 61 ft | 10 kts | 346° |
| 2026-04-29 07:28 | 23.39311 | 113.31221 | 57 ft | 16 kts | 346° |
| 2026-04-29 07:28 | 23.39420 | 113.31230 | 64 ft | 18 kts | 14° |
| 2026-04-29 07:29 | 23.39554 | 113.31271 | 61 ft | 22 kts | 15° |
| 2026-04-29 07:29 | 23.39685 | 113.31307 | 58 ft | 19 kts | 14° |
| 2026-04-29 07:29 | 23.39754 | 113.31294 | 58 ft | 9 kts | 282° |
| 2026-04-29 07:29 | 23.39763 | 113.31207 | 65 ft | 13 kts | 282° |
| 2026-04-29 07:30 | 23.39786 | 113.31100 | 60 ft | 16 kts | 284° |
| 2026-04-29 07:30 | 23.39803 | 113.31028 | 63 ft | 4 kts | 284° |
| 2026-04-29 07:30 | 23.39816 | 113.30975 | 59 ft | 9 kts | 296° |
| 2026-04-29 07:31 | 23.39973 | 113.30982 | 64 ft | 15 kts | 14° |
| 2026-04-29 07:31 | 23.40089 | 113.31013 | 58 ft | 19 kts | 14° |
| 2026-04-29 07:31 | 23.40164 | 113.31021 | 63 ft | 9 kts | 322° |
| 2026-04-29 07:31 | 23.40193 | 113.30945 | 61 ft | 13 kts | 285° |
| 2026-04-29 07:32 | 23.40220 | 113.30842 | 61 ft | 16 kts | 287° |
| 2026-04-29 07:32 | 23.40251 | 113.30714 | 65 ft | 19 kts | 284° |
| 2026-04-29 07:32 | 23.40286 | 113.30563 | 63 ft | 22 kts | 284° |
| 2026-04-29 07:32 | 23.40289 | 113.30405 | 58 ft | 21 kts | 233° |
| 2026-04-29 07:33 | 23.40234 | 113.30298 | 67 ft | 15 kts | 270° |
| 2026-04-29 07:33 | 23.40248 | 113.30189 | 65 ft | 10 kts | 249° |
| 2026-04-29 07:33 | 23.40223 | 113.30166 | 67 ft | 2 kts | 194° |
| 2026-04-29 07:33 | 23.40206 | 113.30166 | 59 ft | 1 kts | 176° |
| 2026-04-29 07:34 | 23.40186 | 113.30163 | 67 ft | 0 kts | 195° |
| 2026-04-29 07:34 | 23.40185 | 113.30163 | 67 ft | 0 kts | 194° |